sensor_id;sensor_type;location;lat;lon;timestamp;pressure;altitude;pressure_sealevel;temperature;humidity
10806;BME280;5455;53.224;6.000;2023-01-28T00:01:56;103077.88;;;3.02;100.00
10806;BME280;5455;53.224;6.000;2023-01-28T00:04:23;103079.78;;;3.02;100.00
10806;BME280;5455;53.224;6.000;2023-01-28T00:06:50;103084.66;;;3.00;100.00
10806;BME280;5455;53.224;6.000;2023-01-28T00:09:17;103078.44;;;3.04;100.00
10806;BME280;5455;53.224;6.000;2023-01-28T00:11:44;103076.03;;;3.08;100.00
10806;BME280;5455;53.224;6.000;2023-01-28T00:14:11;103078.53;;;3.09;100.00
10806;BME280;5455;53.224;6.000;2023-01-28T00:16:38;103075.00;;;3.14;100.00
10806;BME280;5455;53.224;6.000;2023-01-28T00:19:05;103078.06;;;3.17;100.00
10806;BME280;5455;53.224;6.000;2023-01-28T00:21:33;103074.50;;;3.17;100.00
10806;BME280;5455;53.224;6.000;2023-01-28T00:24:00;103068.22;;;3.16;100.00
10806;BME280;5455;53.224;6.000;2023-01-28T00:26:27;103076.91;;;3.13;100.00
10806;BME280;5455;53.224;6.000;2023-01-28T00:28:54;103071.72;;;3.12;100.00
10806;BME280;5455;53.224;6.000;2023-01-28T00:31:23;103068.41;;;3.10;100.00
10806;BME280;5455;53.224;6.000;2023-01-28T00:33:53;103066.00;;;3.13;100.00
10806;BME280;5455;53.224;6.000;2023-01-28T00:36:22;103054.28;;;3.13;100.00
10806;BME280;5455;53.224;6.000;2023-01-28T00:38:52;103053.41;;;3.07;100.00
10806;BME280;5455;53.224;6.000;2023-01-28T00:41:23;103051.50;;;3.08;100.00
10806;BME280;5455;53.224;6.000;2023-01-28T00:43:51;103055.00;;;3.03;100.00
10806;BME280;5455;53.224;6.000;2023-01-28T00:46:20;103045.81;;;3.09;100.00
10806;BME280;5455;53.224;6.000;2023-01-28T00:48:48;103048.59;;;3.14;100.00
10806;BME280;5455;53.224;6.000;2023-01-28T00:51:16;103054.28;;;3.13;100.00
10806;BME280;5455;53.224;6.000;2023-01-28T00:53:44;103047.19;;;3.12;100.00
10806;BME280;5455;53.224;6.000;2023-01-28T00:56:13;103048.81;;;3.13;100.00
10806;BME280;5455;53.224;6.000;2023-01-28T00:58:40;103045.03;;;3.14;100.00
10806;BME280;5455;53.224;6.000;2023-01-28T01:01:18;103033.81;;;3.10;100.00
10806;BME280;5455;53.224;6.000;2023-01-28T01:03:46;103042.81;;;3.11;100.00
10806;BME280;5455;53.224;6.000;2023-01-28T01:06:14;103041.44;;;3.08;100.00
10806;BME280;5455;53.224;6.000;2023-01-28T01:08:42;103047.72;;;3.09;100.00
10806;BME280;5455;53.224;6.000;2023-01-28T01:11:17;103050.16;;;3.10;100.00
10806;BME280;5455;53.224;6.000;2023-01-28T01:13:55;103057.78;;;3.08;100.00
10806;BME280;5455;53.224;6.000;2023-01-28T01:16:26;103052.84;;;3.05;100.00
10806;BME280;5455;53.224;6.000;2023-01-28T01:18:54;103056.41;;;3.06;100.00
10806;BME280;5455;53.224;6.000;2023-01-28T01:21:24;103055.88;;;3.09;100.00
10806;BME280;5455;53.224;6.000;2023-01-28T01:23:52;103057.28;;;3.11;100.00
10806;BME280;5455;53.224;6.000;2023-01-28T01:26:20;103063.78;;;3.10;100.00
10806;BME280;5455;53.224;6.000;2023-01-28T01:28:50;103069.19;;;3.05;100.00
10806;BME280;5455;53.224;6.000;2023-01-28T01:31:19;103062.34;;;3.03;100.00
10806;BME280;5455;53.224;6.000;2023-01-28T01:33:49;103060.50;;;3.08;100.00
10806;BME280;5455;53.224;6.000;2023-01-28T01:36:17;103066.53;;;3.10;100.00
10806;BME280;5455;53.224;6.000;2023-01-28T01:38:52;103059.13;;;3.06;100.00
10806;BME280;5455;53.224;6.000;2023-01-28T01:41:28;103058.63;;;3.09;100.00
10806;BME280;5455;53.224;6.000;2023-01-28T01:44:01;103063.78;;;3.10;100.00
10806;BME280;5455;53.224;6.000;2023-01-28T01:46:33;103061.91;;;3.11;100.00
10806;BME280;5455;53.224;6.000;2023-01-28T01:49:17;103058.94;;;3.12;100.00
10806;BME280;5455;53.224;6.000;2023-01-28T01:51:48;103078.56;;;3.14;100.00
10806;BME280;5455;53.224;6.000;2023-01-28T01:54:18;103073.44;;;3.18;100.00
10806;BME280;5455;53.224;6.000;2023-01-28T01:56:48;103064.44;;;3.17;100.00
10806;BME280;5455;53.224;6.000;2023-01-28T01:59:22;103072.59;;;3.17;100.00
10806;BME280;5455;53.224;6.000;2023-01-28T02:01:51;103061.38;;;3.14;100.00
10806;BME280;5455;53.224;6.000;2023-01-28T02:04:30;103069.25;;;3.10;100.00
10806;BME280;5455;53.224;6.000;2023-01-28T02:06:59;103069.84;;;3.12;100.00
10806;BME280;5455;53.224;6.000;2023-01-28T02:09:28;103066.28;;;3.12;100.00
10806;BME280;5455;53.224;6.000;2023-01-28T02:11:59;103076.59;;;3.10;100.00
10806;BME280;5455;53.224;6.000;2023-01-28T02:14:31;103073.31;;;3.08;100.00
10806;BME280;5455;53.224;6.000;2023-01-28T02:17:00;103068.63;;;3.03;100.00
10806;BME280;5455;53.224;6.000;2023-01-28T02:19:43;103058.81;;;3.02;100.00
10806;BME280;5455;53.224;6.000;2023-01-28T02:30:50;103050.75;;;2.91;100.00
10806;BME280;5455;53.224;6.000;2023-01-28T02:33:39;103049.03;;;2.85;100.00
10806;BME280;5455;53.224;6.000;2023-01-28T02:36:53;103052.69;;;2.73;100.00
10806;BME280;5455;53.224;6.000;2023-01-28T02:39:30;103053.53;;;2.74;100.00
10806;BME280;5455;53.224;6.000;2023-01-28T02:42:18;103053.09;;;2.82;100.00
10806;BME280;5455;53.224;6.000;2023-01-28T02:44:47;103057.97;;;2.80;100.00
10806;BME280;5455;53.224;6.000;2023-01-28T02:47:14;103050.38;;;2.82;100.00
10806;BME280;5455;53.224;6.000;2023-01-28T02:50:06;103060.19;;;2.83;100.00
10806;BME280;5455;53.224;6.000;2023-01-28T02:55:53;103049.59;;;2.87;100.00
10806;BME280;5455;53.224;6.000;2023-01-28T03:01:16;103043.59;;;2.85;100.00
10806;BME280;5455;53.224;6.000;2023-01-28T03:06:23;103046.88;;;2.87;100.00
10806;BME280;5455;53.224;6.000;2023-01-28T03:09:00;103049.88;;;2.85;100.00
10806;BME280;5455;53.224;6.000;2023-01-28T03:11:51;103047.66;;;2.82;100.00
10806;BME280;5455;53.224;6.000;2023-01-28T03:14:42;103047.72;;;2.87;100.00
10806;BME280;5455;53.224;6.000;2023-01-28T03:17:43;103059.63;;;2.81;100.00
10806;BME280;5455;53.224;6.000;2023-01-28T03:20:43;103050.06;;;2.78;100.00
10806;BME280;5455;53.224;6.000;2023-01-28T03:23:38;103040.78;;;2.79;100.00
10806;BME280;5455;53.224;6.000;2023-01-28T03:26:27;103051.44;;;2.81;100.00
10806;BME280;5455;53.224;6.000;2023-01-28T03:29:17;103050.13;;;2.84;100.00
10806;BME280;5455;53.224;6.000;2023-01-28T03:32:10;103054.16;;;2.81;100.00
10806;BME280;5455;53.224;6.000;2023-01-28T03:34:57;103049.78;;;2.80;100.00
10806;BME280;5455;53.224;6.000;2023-01-28T03:37:43;103056.94;;;2.86;100.00
10806;BME280;5455;53.224;6.000;2023-01-28T03:40:20;103061.00;;;2.84;100.00
10806;BME280;5455;53.224;6.000;2023-01-28T03:42:47;103052.59;;;2.85;100.00
10806;BME280;5455;53.224;6.000;2023-01-28T03:45:30;103057.72;;;2.82;100.00
10806;BME280;5455;53.224;6.000;2023-01-28T03:47:58;103058.22;;;2.78;100.00
10806;BME280;5455;53.224;6.000;2023-01-28T03:50:25;103052.78;;;2.78;100.00
10806;BME280;5455;53.224;6.000;2023-01-28T03:52:59;103057.91;;;2.75;100.00
10806;BME280;5455;53.224;6.000;2023-01-28T03:55:49;103056.56;;;2.77;100.00
10806;BME280;5455;53.224;6.000;2023-01-28T03:58:18;103047.84;;;2.75;100.00
10806;BME280;5455;53.224;6.000;2023-01-28T04:00:46;103047.00;;;2.75;100.00
10806;BME280;5455;53.224;6.000;2023-01-28T04:03:15;103035.16;;;2.64;100.00
10806;BME280;5455;53.224;6.000;2023-01-28T04:06:00;103037.63;;;2.66;100.00
10806;BME280;5455;53.224;6.000;2023-01-28T04:08:46;103041.91;;;2.62;100.00
10806;BME280;5455;53.224;6.000;2023-01-28T04:11:54;103041.91;;;2.62;100.00
10806;BME280;5455;53.224;6.000;2023-01-28T04:14:32;103040.28;;;2.61;100.00
10806;BME280;5455;53.224;6.000;2023-01-28T04:17:08;103040.03;;;2.62;100.00
10806;BME280;5455;53.224;6.000;2023-01-28T04:19:37;103045.03;;;2.70;100.00
10806;BME280;5455;53.224;6.000;2023-01-28T04:22:07;103039.03;;;2.68;100.00
10806;BME280;5455;53.224;6.000;2023-01-28T04:24:37;103049.34;;;2.66;100.00
10806;BME280;5455;53.224;6.000;2023-01-28T04:27:04;103046.53;;;2.61;100.00
10806;BME280;5455;53.224;6.000;2023-01-28T04:29:30;103045.25;;;2.64;100.00
10806;BME280;5455;53.224;6.000;2023-01-28T04:32:10;103047.19;;;2.68;100.00
10806;BME280;5455;53.224;6.000;2023-01-28T04:34:52;103043.06;;;2.66;100.00
10806;BME280;5455;53.224;6.000;2023-01-28T04:37:43;103042.69;;;2.57;100.00
10806;BME280;5455;53.224;6.000;2023-01-28T04:40:30;103041.03;;;2.56;100.00
10806;BME280;5455;53.224;6.000;2023-01-28T04:43:06;103038.38;;;2.61;100.00
10806;BME280;5455;53.224;6.000;2023-01-28T04:45:50;103034.25;;;2.59;100.00
10806;BME280;5455;53.224;6.000;2023-01-28T04:48:39;103029.81;;;2.53;100.00
10806;BME280;5455;53.224;6.000;2023-01-28T04:51:25;103042.31;;;2.49;100.00
10806;BME280;5455;53.224;6.000;2023-01-28T04:54:15;103038.97;;;2.47;100.00
10806;BME280;5455;53.224;6.000;2023-01-28T04:56:42;103040.09;;;2.46;100.00
10806;BME280;5455;53.224;6.000;2023-01-28T04:59:09;103031.59;;;2.42;100.00
10806;BME280;5455;53.224;6.000;2023-01-28T05:01:37;103036.53;;;2.45;100.00
10806;BME280;5455;53.224;6.000;2023-01-28T05:04:05;103041.72;;;2.47;100.00
10806;BME280;5455;53.224;6.000;2023-01-28T05:06:35;103041.09;;;2.40;100.00
10806;BME280;5455;53.224;6.000;2023-01-28T05:09:07;103035.03;;;2.38;100.00
10806;BME280;5455;53.224;6.000;2023-01-28T05:11:35;103039.09;;;2.35;100.00
10806;BME280;5455;53.224;6.000;2023-01-28T05:14:05;103042.16;;;2.39;100.00
10806;BME280;5455;53.224;6.000;2023-01-28T05:16:39;103032.91;;;2.40;100.00
10806;BME280;5455;53.224;6.000;2023-01-28T05:19:06;103040.81;;;2.41;100.00
10806;BME280;5455;53.224;6.000;2023-01-28T05:21:45;103036.25;;;2.47;100.00
10806;BME280;5455;53.224;6.000;2023-01-28T05:24:45;103036.75;;;2.44;100.00
10806;BME280;5455;53.224;6.000;2023-01-28T05:27:13;103038.25;;;2.35;100.00
10806;BME280;5455;53.224;6.000;2023-01-28T05:29:40;103036.03;;;2.32;100.00
10806;BME280;5455;53.224;6.000;2023-01-28T05:32:07;103020.81;;;2.31;100.00
10806;BME280;5455;53.224;6.000;2023-01-28T05:34:34;103023.75;;;2.29;100.00
10806;BME280;5455;53.224;6.000;2023-01-28T05:37:08;103029.38;;;2.22;100.00
10806;BME280;5455;53.224;6.000;2023-01-28T05:39:36;103031.31;;;2.22;100.00
10806;BME280;5455;53.224;6.000;2023-01-28T05:42:04;103028.81;;;2.20;100.00
10806;BME280;5455;53.224;6.000;2023-01-28T05:44:33;103026.66;;;2.22;100.00
10806;BME280;5455;53.224;6.000;2023-01-28T05:47:35;103027.16;;;2.19;100.00
10806;BME280;5455;53.224;6.000;2023-01-28T05:50:14;103027.97;;;2.20;100.00
10806;BME280;5455;53.224;6.000;2023-01-28T05:52:43;103024.84;;;2.28;100.00
10806;BME280;5455;53.224;6.000;2023-01-28T05:55:21;103030.53;;;2.27;100.00
10806;BME280;5455;53.224;6.000;2023-01-28T05:57:48;103026.16;;;2.26;100.00
10806;BME280;5455;53.224;6.000;2023-01-28T06:00:18;103025.03;;;2.21;100.00
10806;BME280;5455;53.224;6.000;2023-01-28T06:02:45;103027.09;;;2.14;100.00
10806;BME280;5455;53.224;6.000;2023-01-28T06:05:14;103036.06;;;2.15;100.00
10806;BME280;5455;53.224;6.000;2023-01-28T06:07:46;103037.97;;;2.14;100.00
10806;BME280;5455;53.224;6.000;2023-01-28T06:10:14;103029.56;;;2.16;100.00
10806;BME280;5455;53.224;6.000;2023-01-28T06:12:45;103028.47;;;2.17;100.00
10806;BME280;5455;53.224;6.000;2023-01-28T06:15:30;103031.19;;;2.17;100.00
10806;BME280;5455;53.224;6.000;2023-01-28T06:18:00;103034.25;;;2.20;100.00
10806;BME280;5455;53.224;6.000;2023-01-28T06:20:31;103033.59;;;2.13;100.00
10806;BME280;5455;53.224;6.000;2023-01-28T06:22:59;103038.53;;;2.16;100.00
10806;BME280;5455;53.224;6.000;2023-01-28T06:25:26;103033.69;;;2.18;100.00
10806;BME280;5455;53.224;6.000;2023-01-28T06:27:58;103034.41;;;2.14;100.00
10806;BME280;5455;53.224;6.000;2023-01-28T06:30:24;103041.84;;;2.18;100.00
10806;BME280;5455;53.224;6.000;2023-01-28T06:32:54;103049.75;;;2.20;100.00
10806;BME280;5455;53.224;6.000;2023-01-28T06:35:22;103054.06;;;2.16;100.00
10806;BME280;5455;53.224;6.000;2023-01-28T06:37:50;103052.34;;;2.10;100.00
10806;BME280;5455;53.224;6.000;2023-01-28T06:40:18;103044.56;;;2.02;100.00
10806;BME280;5455;53.224;6.000;2023-01-28T06:42:45;103057.75;;;1.93;100.00
10806;BME280;5455;53.224;6.000;2023-01-28T06:45:12;103064.59;;;1.79;100.00
10806;BME280;5455;53.224;6.000;2023-01-28T06:47:40;103059.97;;;1.63;100.00
10806;BME280;5455;53.224;6.000;2023-01-28T06:50:08;103068.53;;;1.55;100.00
10806;BME280;5455;53.224;6.000;2023-01-28T06:52:35;103049.28;;;1.45;100.00
10806;BME280;5455;53.224;6.000;2023-01-28T06:55:02;103055.28;;;1.30;100.00
10806;BME280;5455;53.224;6.000;2023-01-28T06:57:29;103059.22;;;1.23;100.00
10806;BME280;5455;53.224;6.000;2023-01-28T06:59:56;103063.72;;;1.17;100.00
10806;BME280;5455;53.224;6.000;2023-01-28T07:02:23;103047.22;;;1.07;100.00
10806;BME280;5455;53.224;6.000;2023-01-28T07:04:53;103051.38;;;0.98;100.00
10806;BME280;5455;53.224;6.000;2023-01-28T07:07:20;103061.66;;;0.96;100.00
10806;BME280;5455;53.224;6.000;2023-01-28T07:09:47;103058.94;;;0.96;100.00
10806;BME280;5455;53.224;6.000;2023-01-28T07:12:14;103045.97;;;0.86;100.00
10806;BME280;5455;53.224;6.000;2023-01-28T07:14:41;103051.53;;;0.80;100.00
10806;BME280;5455;53.224;6.000;2023-01-28T07:17:08;103050.00;;;0.72;100.00
10806;BME280;5455;53.224;6.000;2023-01-28T07:19:35;103054.50;;;0.67;100.00
10806;BME280;5455;53.224;6.000;2023-01-28T07:22:02;103054.97;;;0.64;100.00
10806;BME280;5455;53.224;6.000;2023-01-28T07:24:29;103062.53;;;0.62;100.00
10806;BME280;5455;53.224;6.000;2023-01-28T07:26:57;103057.25;;;0.55;100.00
10806;BME280;5455;53.224;6.000;2023-01-28T07:29:23;103053.69;;;0.54;100.00
10806;BME280;5455;53.224;6.000;2023-01-28T07:31:51;103053.00;;;0.59;100.00
10806;BME280;5455;53.224;6.000;2023-01-28T07:34:18;103057.94;;;0.62;100.00
10806;BME280;5455;53.224;6.000;2023-01-28T07:36:45;103055.59;;;0.66;100.00
10806;BME280;5455;53.224;6.000;2023-01-28T07:39:12;103056.75;;;0.70;100.00
10806;BME280;5455;53.224;6.000;2023-01-28T07:41:39;103071.84;;;0.77;100.00
10806;BME280;5455;53.224;6.000;2023-01-28T07:44:09;103065.94;;;0.80;100.00
10806;BME280;5455;53.224;6.000;2023-01-28T07:46:36;103074.09;;;0.80;100.00
10806;BME280;5455;53.224;6.000;2023-01-28T07:49:03;103076.06;;;0.85;100.00
10806;BME280;5455;53.224;6.000;2023-01-28T07:51:30;103085.63;;;0.87;100.00
10806;BME280;5455;53.224;6.000;2023-01-28T07:53:58;103083.75;;;0.88;100.00
10806;BME280;5455;53.224;6.000;2023-01-28T07:56:25;103092.25;;;0.91;100.00
10806;BME280;5455;53.224;6.000;2023-01-28T07:58:54;103092.59;;;0.95;100.00
10806;BME280;5455;53.224;6.000;2023-01-28T08:01:22;103091.88;;;0.99;100.00
10806;BME280;5455;53.224;6.000;2023-01-28T08:03:50;103099.66;;;1.07;100.00
10806;BME280;5455;53.224;6.000;2023-01-28T08:06:16;103106.25;;;1.11;100.00
10806;BME280;5455;53.224;6.000;2023-01-28T08:08:46;103109.31;;;1.15;100.00
10806;BME280;5455;53.224;6.000;2023-01-28T08:11:13;103106.50;;;1.10;100.00
10806;BME280;5455;53.224;6.000;2023-01-28T08:13:40;103110.19;;;1.04;100.00
10806;BME280;5455;53.224;6.000;2023-01-28T08:16:07;103109.81;;;1.00;100.00
10806;BME280;5455;53.224;6.000;2023-01-28T08:18:34;103106.75;;;0.97;100.00
10806;BME280;5455;53.224;6.000;2023-01-28T08:21:01;103116.56;;;0.98;100.00
10806;BME280;5455;53.224;6.000;2023-01-28T08:23:30;103115.16;;;0.95;100.00
10806;BME280;5455;53.224;6.000;2023-01-28T08:26:00;103117.25;;;0.93;100.00
10806;BME280;5455;53.224;6.000;2023-01-28T08:28:27;103115.84;;;0.91;100.00
10806;BME280;5455;53.224;6.000;2023-01-28T08:30:54;103141.72;;;0.93;100.00
10806;BME280;5455;53.224;6.000;2023-01-28T08:33:21;103135.09;;;1.01;100.00
10806;BME280;5455;53.224;6.000;2023-01-28T08:35:48;103139.44;;;1.14;100.00
10806;BME280;5455;53.224;6.000;2023-01-28T08:38:15;103138.13;;;1.16;100.00
10806;BME280;5455;53.224;6.000;2023-01-28T08:40:43;103136.38;;;1.10;100.00
10806;BME280;5455;53.224;6.000;2023-01-28T08:43:11;103133.78;;;1.03;100.00
10806;BME280;5455;53.224;6.000;2023-01-28T08:45:38;103131.91;;;1.04;100.00
10806;BME280;5455;53.224;6.000;2023-01-28T08:48:08;103133.56;;;1.05;100.00
10806;BME280;5455;53.224;6.000;2023-01-28T08:50:38;103133.09;;;1.08;100.00
10806;BME280;5455;53.224;6.000;2023-01-28T08:53:09;103135.56;;;1.09;100.00
10806;BME280;5455;53.224;6.000;2023-01-28T08:55:37;103125.50;;;1.10;100.00
10806;BME280;5455;53.224;6.000;2023-01-28T08:58:05;103128.69;;;1.19;100.00
10806;BME280;5455;53.224;6.000;2023-01-28T09:00:33;103138.00;;;1.23;100.00
10806;BME280;5455;53.224;6.000;2023-01-28T09:03:01;103139.41;;;1.25;100.00
10806;BME280;5455;53.224;6.000;2023-01-28T09:05:33;103138.59;;;1.25;100.00
10806;BME280;5455;53.224;6.000;2023-01-28T09:08:04;103142.72;;;1.27;100.00
10806;BME280;5455;53.224;6.000;2023-01-28T09:10:32;103144.13;;;1.30;100.00
10806;BME280;5455;53.224;6.000;2023-01-28T09:13:07;103149.69;;;1.35;100.00
10806;BME280;5455;53.224;6.000;2023-01-28T09:15:35;103151.75;;;1.44;100.00
10806;BME280;5455;53.224;6.000;2023-01-28T09:18:03;103148.91;;;1.51;100.00
10806;BME280;5455;53.224;6.000;2023-01-28T09:20:31;103153.97;;;1.59;100.00
10806;BME280;5455;53.224;6.000;2023-01-28T09:23:00;103144.84;;;1.65;100.00
10806;BME280;5455;53.224;6.000;2023-01-28T09:25:27;103144.94;;;1.70;100.00
10806;BME280;5455;53.224;6.000;2023-01-28T09:27:54;103144.03;;;1.81;100.00
10806;BME280;5455;53.224;6.000;2023-01-28T09:30:21;103149.69;;;1.91;100.00
10806;BME280;5455;53.224;6.000;2023-01-28T09:32:50;103140.69;;;2.07;100.00
10806;BME280;5455;53.224;6.000;2023-01-28T09:35:17;103152.38;;;2.36;100.00
10806;BME280;5455;53.224;6.000;2023-01-28T09:37:46;103138.81;;;2.58;100.00
10806;BME280;5455;53.224;6.000;2023-01-28T09:40:37;103139.28;;;2.71;100.00
10806;BME280;5455;53.224;6.000;2023-01-28T09:43:11;103139.94;;;2.78;100.00
10806;BME280;5455;53.224;6.000;2023-01-28T09:45:50;103140.78;;;2.79;100.00
10806;BME280;5455;53.224;6.000;2023-01-28T09:48:21;103153.69;;;2.89;100.00
10806;BME280;5455;53.224;6.000;2023-01-28T09:50:52;103149.94;;;3.11;100.00
10806;BME280;5455;53.224;6.000;2023-01-28T09:53:30;103150.97;;;3.27;100.00
10806;BME280;5455;53.224;6.000;2023-01-28T09:58:29;103168.00;;;3.17;100.00
10806;BME280;5455;53.224;6.000;2023-01-28T10:09:17;103116.91;;;3.78;100.00
10806;BME280;5455;53.224;6.000;2023-01-28T10:20:17;103083.44;;;4.19;100.00
10806;BME280;5455;53.224;6.000;2023-01-28T10:22:52;103093.19;;;4.10;100.00
10806;BME280;5455;53.224;6.000;2023-01-28T10:25:24;103075.75;;;4.16;100.00
10806;BME280;5455;53.224;6.000;2023-01-28T10:27:54;103068.47;;;4.27;100.00
10806;BME280;5455;53.224;6.000;2023-01-28T10:30:27;103072.59;;;4.29;100.00
10806;BME280;5455;53.224;6.000;2023-01-28T10:33:02;103072.00;;;4.27;100.00
10806;BME280;5455;53.224;6.000;2023-01-28T10:35:37;103057.28;;;4.28;100.00
10806;BME280;5455;53.224;6.000;2023-01-28T10:38:08;103062.75;;;4.28;100.00
10806;BME280;5455;53.224;6.000;2023-01-28T10:40:36;103058.16;;;4.39;100.00
10806;BME280;5455;53.224;6.000;2023-01-28T10:43:03;103058.00;;;4.51;100.00
10806;BME280;5455;53.224;6.000;2023-01-28T10:45:36;103060.16;;;4.54;100.00
10806;BME280;5455;53.224;6.000;2023-01-28T10:48:13;103052.78;;;4.54;100.00
10806;BME280;5455;53.224;6.000;2023-01-28T10:50:53;103056.31;;;4.44;100.00
10806;BME280;5455;53.224;6.000;2023-01-28T10:53:52;103055.78;;;4.48;100.00
10806;BME280;5455;53.224;6.000;2023-01-28T10:56:29;103065.63;;;4.54;100.00
10806;BME280;5455;53.224;6.000;2023-01-28T10:59:01;103074.72;;;4.64;100.00
10806;BME280;5455;53.224;6.000;2023-01-28T11:04:30;103084.09;;;4.78;100.00
10806;BME280;5455;53.224;6.000;2023-01-28T11:07:18;103088.25;;;4.86;100.00
10806;BME280;5455;53.224;6.000;2023-01-28T11:09:50;103088.78;;;4.88;100.00
10806;BME280;5455;53.224;6.000;2023-01-28T11:12:24;103095.41;;;4.97;100.00
10806;BME280;5455;53.224;6.000;2023-01-28T11:14:55;103097.03;;;4.98;100.00
10806;BME280;5455;53.224;6.000;2023-01-28T11:17:26;103096.28;;;5.08;100.00
10806;BME280;5455;53.224;6.000;2023-01-28T11:19:57;103089.69;;;5.09;100.00
10806;BME280;5455;53.224;6.000;2023-01-28T11:22:35;103078.22;;;5.02;100.00
10806;BME280;5455;53.224;6.000;2023-01-28T11:27:48;103078.47;;;5.05;100.00
10806;BME280;5455;53.224;6.000;2023-01-28T11:30:36;103071.38;;;5.09;100.00
10806;BME280;5455;53.224;6.000;2023-01-28T11:33:21;103069.47;;;5.05;100.00
10806;BME280;5455;53.224;6.000;2023-01-28T11:35:55;103070.50;;;4.93;100.00
10806;BME280;5455;53.224;6.000;2023-01-28T11:38:24;103064.78;;;5.00;100.00
10806;BME280;5455;53.224;6.000;2023-01-28T11:40:53;103049.78;;;5.08;100.00
10806;BME280;5455;53.224;6.000;2023-01-28T11:43:28;103052.25;;;5.14;100.00
10806;BME280;5455;53.224;6.000;2023-01-28T11:48:56;103051.47;;;5.29;100.00
10806;BME280;5455;53.224;6.000;2023-01-28T11:54:46;103045.75;;;5.25;100.00
10806;BME280;5455;53.224;6.000;2023-01-28T11:57:45;103040.78;;;5.12;100.00
10806;BME280;5455;53.224;6.000;2023-01-28T12:00:30;103040.19;;;5.05;100.00
10806;BME280;5455;53.224;6.000;2023-01-28T12:06:29;103033.16;;;4.57;100.00
10806;BME280;5455;53.224;6.000;2023-01-28T12:20:31;103009.38;;;4.58;100.00
10806;BME280;5455;53.224;6.000;2023-01-28T12:23:24;103005.59;;;4.64;100.00
10806;BME280;5455;53.224;6.000;2023-01-28T12:28:48;102999.91;;;4.75;100.00
10806;BME280;5455;53.224;6.000;2023-01-28T12:34:40;103007.88;;;4.87;100.00
10806;BME280;5455;53.224;6.000;2023-01-28T12:45:39;103033.09;;;5.04;100.00
10806;BME280;5455;53.224;6.000;2023-01-28T12:48:12;103027.34;;;5.06;100.00
10806;BME280;5455;53.224;6.000;2023-01-28T12:50:46;103019.19;;;5.11;100.00
10806;BME280;5455;53.224;6.000;2023-01-28T12:56:02;103029.09;;;5.37;100.00
10806;BME280;5455;53.224;6.000;2023-01-28T12:58:52;103018.16;;;5.42;100.00
10806;BME280;5455;53.224;6.000;2023-01-28T13:01:54;103018.47;;;5.55;100.00
10806;BME280;5455;53.224;6.000;2023-01-28T13:04:30;103010.22;;;5.45;100.00
10806;BME280;5455;53.224;6.000;2023-01-28T13:07:05;103004.19;;;5.38;100.00
10806;BME280;5455;53.224;6.000;2023-01-28T13:09:37;102997.56;;;5.14;100.00
10806;BME280;5455;53.224;6.000;2023-01-28T13:12:10;103002.19;;;5.09;100.00
10806;BME280;5455;53.224;6.000;2023-01-28T13:14:40;103005.75;;;5.09;100.00
10806;BME280;5455;53.224;6.000;2023-01-28T13:17:24;103004.97;;;5.24;100.00
10806;BME280;5455;53.224;6.000;2023-01-28T13:19:51;102997.63;;;5.34;100.00
10806;BME280;5455;53.224;6.000;2023-01-28T13:24:54;102988.34;;;5.50;100.00
10806;BME280;5455;53.224;6.000;2023-01-28T13:27:24;102988.91;;;5.52;100.00
10806;BME280;5455;53.224;6.000;2023-01-28T13:30:22;102989.47;;;5.65;100.00
10806;BME280;5455;53.224;6.000;2023-01-28T13:33:04;102982.59;;;5.67;100.00
10806;BME280;5455;53.224;6.000;2023-01-28T13:35:37;102971.38;;;5.64;100.00
10806;BME280;5455;53.224;6.000;2023-01-28T13:38:16;102972.19;;;5.54;100.00
10806;BME280;5455;53.224;6.000;2023-01-28T13:40:59;102978.50;;;5.60;100.00
10806;BME280;5455;53.224;6.000;2023-01-28T13:46:02;102981.22;;;5.49;100.00
10806;BME280;5455;53.224;6.000;2023-01-28T13:48:48;102973.28;;;5.48;100.00
10806;BME280;5455;53.224;6.000;2023-01-28T13:51:24;102963.72;;;5.50;100.00
10806;BME280;5455;53.224;6.000;2023-01-28T14:02:40;102989.16;;;5.66;100.00
10806;BME280;5455;53.224;6.000;2023-01-28T14:11:06;102997.91;;;5.68;100.00
10806;BME280;5455;53.224;6.000;2023-01-28T14:19:03;103006.13;;;5.83;100.00
10806;BME280;5455;53.224;6.000;2023-01-28T14:21:33;103015.16;;;5.84;100.00
10806;BME280;5455;53.224;6.000;2023-01-28T14:24:01;103017.91;;;5.79;100.00
10806;BME280;5455;53.224;6.000;2023-01-28T14:26:41;103018.47;;;5.76;100.00
10806;BME280;5455;53.224;6.000;2023-01-28T14:29:35;103010.25;;;5.81;100.00
10806;BME280;5455;53.224;6.000;2023-01-28T14:32:14;103008.88;;;5.73;100.00
10806;BME280;5455;53.224;6.000;2023-01-28T14:34:42;102993.28;;;5.64;100.00
10806;BME280;5455;53.224;6.000;2023-01-28T14:37:16;102989.72;;;5.63;100.00
10806;BME280;5455;53.224;6.000;2023-01-28T14:39:48;102990.00;;;5.67;100.00
10806;BME280;5455;53.224;6.000;2023-01-28T14:42:25;102993.56;;;5.67;100.00
10806;BME280;5455;53.224;6.000;2023-01-28T14:56:35;103002.84;;;5.66;100.00
10806;BME280;5455;53.224;6.000;2023-01-28T14:59:27;102992.44;;;5.53;100.00
10806;BME280;5455;53.224;6.000;2023-01-28T15:01:58;102999.56;;;5.49;100.00
10806;BME280;5455;53.224;6.000;2023-01-28T15:04:31;103002.56;;;5.42;100.00
10806;BME280;5455;53.224;6.000;2023-01-28T15:07:17;103011.84;;;5.41;100.00
10806;BME280;5455;53.224;6.000;2023-01-28T15:09:44;103009.94;;;5.37;100.00
10806;BME280;5455;53.224;6.000;2023-01-28T15:12:12;103014.28;;;5.38;100.00
10806;BME280;5455;53.224;6.000;2023-01-28T15:14:40;103020.31;;;5.35;100.00
10806;BME280;5455;53.224;6.000;2023-01-28T15:17:20;103008.81;;;5.38;100.00
10806;BME280;5455;53.224;6.000;2023-01-28T15:19:49;102994.34;;;5.37;100.00
10806;BME280;5455;53.224;6.000;2023-01-28T15:22:18;102993.25;;;5.28;100.00
10806;BME280;5455;53.224;6.000;2023-01-28T15:24:48;102988.56;;;5.24;100.00
10806;BME280;5455;53.224;6.000;2023-01-28T15:27:17;103001.16;;;5.25;100.00
10806;BME280;5455;53.224;6.000;2023-01-28T15:29:53;102976.25;;;5.26;100.00